CST,Max TemperatureF,Mean TemperatureF,Min TemperatureF,Max Dew PointF,MeanDew PointF,Min DewpointF,Max Humidity, Mean Humidity, Min Humidity, Max Sea Level PressureIn, Mean Sea Level PressureIn, Min Sea Level PressureIn, Max VisibilityMiles, Mean VisibilityMiles, Min VisibilityMiles, Max Wind SpeedMPH, Mean Wind SpeedMPH, Max Gust SpeedMPH,PrecipitationIn, CloudCover, Events, WindDirDegrees
2012-2-1,64,53,41,50,44,37,93,66,39,30.16,30.08,30.02,10,7,1,16,5,22,0.00,2,,319
2012-2-2,54,45,35,38,35,32,100,75,50,30.39,30.30,30.17,10,4,0,9,3,22,0.00,2,Fog,9
2012-2-3,55,45,34,41,35,30,96,72,47,30.40,30.33,30.20,10,6,2,15,8,18,0.03,2,Rain,62
2012-2-4,47,45,42,43,40,38,96,84,71,30.18,30.09,30.03,10,3,1,18,11,24,0.40,8,Rain,54
2012-2-5,49,41,33,38,34,27,92,71,50,30.28,30.22,30.12,10,7,2,14,7,17,0.00,5,,23
2012-2-6,50,38,26,32,28,23,92,69,46,30.29,30.25,30.20,10,5,0,15,4,17,0.00,0,Fog,295
2012-2-7,44,33,22,34,28,20,92,80,67,30.32,30.26,30.22,7,4,0,14,5,16,0.00,4,Fog,36
2012-2-8,36,34,32,30,28,24,89,79,69,30.40,30.36,30.31,10,7,2,9,8,10,T,8,Snow,326
2012-2-9,36,33,30,25,21,18,72,62,52,30.40,30.33,30.23,10,9,8,15,5,17,0.00,8,,249
2012-2-10,37,30,23,34,28,16,89,81,72,30.21,30.07,29.97,10,4,1,31,11,37,0.08,8,Rain-Snow,241
2012-2-11,25,20,15,16,9,4,74,60,45,30.48,30.35,30.16,10,8,2,30,17,37,T,4,Snow,321
2012-2-12,36,27,18,14,10,4,67,51,35,30.51,30.44,30.34,10,10,10,20,10,23,0.00,0,,276
2012-2-13,36,27,18,28,20,13,77,58,38,30.33,30.11,29.94,10,7,2,18,7,23,T,6,Snow,172
2012-2-14,38,35,31,31,30,28,92,84,76,30.13,29.96,29.88,9,5,1,12,5,14,0.06,8,Snow,207
2012-2-15,44,38,31,40,36,28,89,84,79,30.18,30.11,30.02,8,4,2,17,8,20,0.21,8,Rain,160
2012-2-16,50,40,29,43,38,27,92,76,60,30.25,30.09,29.96,9,4,1,21,9,25,0.03,6,Rain,261
2012-2-17,51,38,25,36,28,22,92,67,41,30.27,30.21,30.12,10,4,0,13,4,14,0.00,0,Fog,191
2012-2-18,47,38,29,30,27,24,92,69,45,30.17,30.13,30.09,10,9,5,17,9,21,0.00,0,,19
2012-2-19,44,36,27,24,22,20,75,59,43,30.21,30.12,30.08,10,10,10,20,11,25,0.00,0,,24
2012-2-20,49,34,19,25,23,17,88,62,36,30.32,30.20,29.94,10,9,4,17,8,22,0.00,0,,119
2012-2-21,50,42,34,39,35,26,89,71,53,29.91,29.84,29.75,10,10,6,31,15,41,0.10,5,Rain,212
2012-2-22,59,46,33,36,33,30,89,64,39,29.83,29.60,29.47,10,10,9,23,10,26,T,3,Rain,214
2012-2-23,63,50,36,46,39,31,92,68,43,29.57,29.43,29.27,10,10,6,21,7,24,T,4,,95
2012-2-24,50,41,31,41,28,21,77,64,50,30.12,29.82,29.46,10,10,8,35,18,45,T,5,Rain,279
2012-2-25,37,31,24,25,19,16,81,63,44,30.38,30.28,30.13,10,9,2,25,10,31,T,4,Snow,315
2012-2-26,57,40,22,24,21,16,81,53,24,30.38,30.25,30.14,10,10,8,28,12,32,0.00,0,,161
2012-2-27,54,43,31,29,24,20,69,49,28,30.48,30.38,30.21,10,10,10,18,8,23,0.00,1,,333
2012-2-28,62,45,27,49,31,21,78,56,34,30.47,30.21,29.81,10,10,7,26,9,32,T,5,Rain-Thunderstorm,98
2012-2-29,69,58,46,61,44,25,80,53,25,29.84,29.71,29.62,10,9,3,36,19,47,0.17,3,Rain,233